createdAt,value
2018-06-13T00:00:40.992Z,72.47
2018-06-13T00:03:10.607Z,71.54
2018-06-13T00:05:40.421Z,71.53
2018-06-13T00:08:10.135Z,71.82
2018-06-13T00:10:39.934Z,72.48
2018-06-13T00:13:09.783Z,72.83
2018-06-13T00:15:39.546Z,72.24
2018-06-13T00:18:09.970Z,72.65
2018-06-13T00:20:41.736Z,72.12
2018-06-13T00:23:10.704Z,72.66
2018-06-13T00:25:39.747Z,71.89
2018-06-13T00:28:08.882Z,72.67
2018-06-13T00:30:37.754Z,72.15
2018-06-13T00:33:06.530Z,72.39
2018-06-13T00:35:36.008Z,72.60
2018-06-13T00:38:05.942Z,72.28
2018-06-13T00:40:35.531Z,71.94
2018-06-13T00:43:04.316Z,72.88
2018-06-13T00:45:33.893Z,72.26
2018-06-13T00:48:02.687Z,73.66
2018-06-13T00:50:32.263Z,73.63
2018-06-13T00:53:01.008Z,73.77
2018-06-13T00:55:29.756Z,74.60
2018-06-13T00:57:59.406Z,74.23
2018-06-13T01:00:29.030Z,74.92
2018-06-13T01:02:57.897Z,75.25
2018-06-13T01:05:26.840Z,75.27
2018-06-13T01:07:56.671Z,75.53
2018-06-13T01:10:25.480Z,75.37
2018-06-13T01:12:54.825Z,75.65
2018-06-13T01:15:24.735Z,75.39
2018-06-13T01:17:54.705Z,74.76
2018-06-13T01:20:23.487Z,74.54
2018-06-13T01:22:52.454Z,74.15
2018-06-13T01:25:22.080Z,74.58
2018-06-13T01:27:51.434Z,74.99
2018-06-13T01:30:20.255Z,74.33
2018-06-13T01:32:49.210Z,74.00
2018-06-13T01:35:18.733Z,74.36
2018-06-13T01:37:47.543Z,74.10
2018-06-13T01:40:17.181Z,74.22
2018-06-13T01:42:45.954Z,74.79
2018-06-13T01:45:15.337Z,74.03
2018-06-13T01:47:45.030Z,75.19
2018-06-13T01:50:13.791Z,75.58
2018-06-13T01:52:43.384Z,76.34
2018-06-13T01:55:12.135Z,76.21
2018-06-13T01:57:42.500Z,75.51
2018-06-13T02:00:12.012Z,75.76
2018-06-13T02:02:41.258Z,75.17
2018-06-13T02:05:10.303Z,76.06
2018-06-13T02:07:40.348Z,75.21
2018-06-13T02:10:09.318Z,74.78
2018-06-13T02:12:38.352Z,75.54
2018-06-13T02:15:08.430Z,75.63
2018-06-13T02:17:38.284Z,75.70
2018-06-13T02:20:07.112Z,75.38
2018-06-13T02:22:36.583Z,75.59
2018-06-13T02:25:05.823Z,75.16
2018-06-13T02:27:34.820Z,75.25
2018-06-13T02:30:04.512Z,74.49
2018-06-13T02:32:33.410Z,74.70
2018-06-13T02:35:02.950Z,74.20
2018-06-13T02:37:31.699Z,74.55
2018-06-13T02:40:00.483Z,74.57
2018-06-13T02:42:29.778Z,74.10
2018-06-13T02:44:59.727Z,74.05
2018-06-13T02:47:29.435Z,73.41
2018-06-13T02:49:58.245Z,74.14
2018-06-13T02:52:27.814Z,72.36
2018-06-13T02:54:56.700Z,69.84
2018-06-13T02:57:25.671Z,67.38
2018-06-13T02:59:55.402Z,65.58
2018-06-13T03:02:25.199Z,64.37
2018-06-13T03:04:54.103Z,61.75
2018-06-13T03:07:23.795Z,59.96
2018-06-13T03:09:52.604Z,58.17
2018-06-13T03:12:21.391Z,55.42
2018-06-13T03:14:57.091Z,53.29
2018-06-13T03:17:26.861Z,52.87
2018-06-13T03:19:55.704Z,51.20
2018-06-13T03:22:24.592Z,50.05
2018-06-13T03:24:54.396Z,47.99
2018-06-13T03:27:23.163Z,45.45
2018-06-13T03:29:52.634Z,45.74
2018-06-13T03:32:21.406Z,44.30
2018-06-13T03:34:50.976Z,45.79
2018-06-13T03:37:19.720Z,44.40
2018-06-13T03:39:48.527Z,44.43
2018-06-13T03:42:18.139Z,44.06
2018-06-13T03:44:47.664Z,42.79
2018-06-13T03:47:16.423Z,43.11
2018-06-13T03:49:45.186Z,43.06
2018-06-13T03:52:14.588Z,41.21
2018-06-13T03:54:43.326Z,40.73
2018-06-13T03:57:12.088Z,40.20
2018-06-13T03:59:41.015Z,40.59
2018-06-13T04:02:10.887Z,40.94
2018-06-13T04:04:41.026Z,40.37
2018-06-13T04:07:10.691Z,39.89
2018-06-13T04:09:39.574Z,40.45
2018-06-13T04:12:08.556Z,41.55
2018-06-13T04:14:37.337Z,41.17
2018-06-13T04:17:07.019Z,41.66
2018-06-13T04:19:35.800Z,42.37
2018-06-13T04:22:04.571Z,44.17
2018-06-13T04:24:33.967Z,44.87
2018-06-13T04:27:02.691Z,46.21
2018-06-13T04:29:32.287Z,47.64
2018-06-13T04:32:01.060Z,47.95
2018-06-13T04:34:29.818Z,49.31
2018-06-13T04:36:59.345Z,51.17
2018-06-13T04:39:28.106Z,51.65
2018-06-13T04:41:57.254Z,52.84
2018-06-13T04:44:27.112Z,54.60
2018-06-13T04:46:55.858Z,55.20
2018-06-13T04:49:24.598Z,56.60
2018-06-13T04:51:54.263Z,58.34
2018-06-13T04:54:23.054Z,59.10
2018-06-13T04:56:51.819Z,58.37
2018-06-13T04:59:20.588Z,59.42
2018-06-13T05:01:49.339Z,60.74
2018-06-13T05:04:18.179Z,60.29
2018-06-13T05:06:47.919Z,60.47
2018-06-13T05:09:16.654Z,60.66
2018-06-13T05:11:45.406Z,60.54
2018-06-13T05:14:14.169Z,61.25
2018-06-13T05:16:43.605Z,60.96
2018-06-13T05:19:12.334Z,61.42
2018-06-13T05:21:41.210Z,62.39
2018-06-13T05:24:10.786Z,61.87
2018-06-13T05:26:39.645Z,61.78
2018-06-13T05:29:09.231Z,61.41
2018-06-13T05:31:38.108Z,61.50
2018-06-13T05:34:06.995Z,60.94
2018-06-13T05:36:36.533Z,61.42
2018-06-13T05:39:08.614Z,60.94
2018-06-13T05:41:37.975Z,61.55
2018-06-13T05:44:07.144Z,60.70
2018-06-13T05:46:36.653Z,60.38
2018-06-13T05:49:05.425Z,60.19
2018-06-13T05:51:35.438Z,60.89
2018-06-13T05:54:04.174Z,62.02
2018-06-13T05:56:32.988Z,60.07
2018-06-13T05:59:01.738Z,60.57
2018-06-13T06:01:31.250Z,59.64
2018-06-13T06:04:00.802Z,60.44
2018-06-13T06:06:30.700Z,59.61
2018-06-13T06:08:59.800Z,59.69
2018-06-13T06:11:28.550Z,59.15
2018-06-13T06:13:57.335Z,59.39
2018-06-13T06:16:26.847Z,58.27
2018-06-13T06:18:55.652Z,58.53
2018-06-13T06:21:24.551Z,58.06
2018-06-13T06:23:54.540Z,58.13
2018-06-13T06:26:23.416Z,57.83
2018-06-13T06:28:52.838Z,57.08
2018-06-13T06:31:21.626Z,56.92
2018-06-13T06:33:50.346Z,57.35
2018-06-13T06:36:19.858Z,56.24
2018-06-13T06:38:48.666Z,56.62
2018-06-13T06:41:18.449Z,57.18
2018-06-13T06:43:47.232Z,56.07
2018-06-13T06:46:16.606Z,56.48
2018-06-13T06:48:45.366Z,55.63
2018-06-13T06:51:15.138Z,55.90
2018-06-13T06:53:43.948Z,55.79
2018-06-13T06:56:12.760Z,55.29
2018-06-13T06:58:41.626Z,54.93
2018-06-13T07:01:10.558Z,54.01
2018-06-13T07:03:39.687Z,53.06
2018-06-13T07:06:08.450Z,53.41
2018-06-13T07:08:38.237Z,54.23
2018-06-13T07:11:07.134Z,54.69
2018-06-13T07:13:36.135Z,54.24
2018-06-13T07:16:05.732Z,53.28
2018-06-13T07:18:34.539Z,51.80
2018-06-13T07:21:03.308Z,50.87
2018-06-13T07:23:32.927Z,51.82
2018-06-13T07:26:01.648Z,52.02
2018-06-13T07:28:31.146Z,51.18
2018-06-13T07:30:59.894Z,51.65
2018-06-13T07:33:29.901Z,50.63
2018-06-13T07:35:59.355Z,50.69
2018-06-13T07:38:28.182Z,50.31
2018-06-13T07:40:57.777Z,49.73
2018-06-13T07:43:26.715Z,51.28
2018-06-13T07:45:56.358Z,50.78
2018-06-13T07:48:25.566Z,50.70
2018-06-13T07:50:55.072Z,51.76
2018-06-13T07:53:23.922Z,53.17
2018-06-13T07:55:52.675Z,54.37
2018-06-13T07:58:21.571Z,53.84
2018-06-13T08:00:50.285Z,53.62
2018-06-13T08:03:19.176Z,53.33
2018-06-13T08:05:47.998Z,53.61
2018-06-13T08:08:17.651Z,51.03
2018-06-13T08:10:46.390Z,52.83
2018-06-13T08:13:15.181Z,52.47
2018-06-13T08:15:44.754Z,50.44
2018-06-13T08:18:14.491Z,50.92
2018-06-13T08:20:43.311Z,50.35
2018-06-13T08:23:12.857Z,50.76
2018-06-13T08:25:41.788Z,51.63
2018-06-13T08:28:11.719Z,51.81
2018-06-13T08:30:40.722Z,49.22
2018-06-13T08:33:10.322Z,50.26
2018-06-13T08:35:40.334Z,50.12
2018-06-13T08:38:09.327Z,49.22
2018-06-13T08:40:39.026Z,50.14
2018-06-13T08:43:07.946Z,47.09
2018-06-13T08:45:37.563Z,43.88
2018-06-13T08:48:06.374Z,41.53
2018-06-13T08:50:36.237Z,42.37
2018-06-13T08:53:05.026Z,42.04
2018-06-13T08:55:33.820Z,47.90
2018-06-13T08:58:02.692Z,49.13
2018-06-13T09:00:31.442Z,48.61
2018-06-13T09:03:00.371Z,49.17
2018-06-13T09:05:29.202Z,47.75
2018-06-13T09:07:59.116Z,47.17
2018-06-13T09:10:27.956Z,47.00
2018-06-13T09:12:56.934Z,45.42
2018-06-13T09:15:27.400Z,43.64
2018-06-13T09:17:57.242Z,42.56
2018-06-13T09:20:26.255Z,40.81
2018-06-13T09:22:55.148Z,41.46
2018-06-13T09:25:24.808Z,41.47
2018-06-13T09:27:54.669Z,38.73
2018-06-13T09:30:23.841Z,38.98
2018-06-13T09:32:52.658Z,39.85
2018-06-13T09:35:22.446Z,39.43
2018-06-13T09:37:51.235Z,39.34
2018-06-13T09:40:20.668Z,39.31
2018-06-13T09:42:49.454Z,39.03
2018-06-13T09:45:19.698Z,38.74
2018-06-13T09:47:48.470Z,40.03
2018-06-13T09:50:17.239Z,39.52
2018-06-13T09:52:46.606Z,40.17
2018-06-13T09:55:15.402Z,40.22
2018-06-13T09:57:44.199Z,43.38
2018-06-13T10:00:18.024Z,43.38
2018-06-13T10:02:46.879Z,43.43
2018-06-13T10:05:15.688Z,42.89
2018-06-13T10:07:45.159Z,42.91
2018-06-13T10:10:13.906Z,42.51
2018-06-13T10:12:42.671Z,41.47
2018-06-13T10:15:12.453Z,41.83
2018-06-13T10:17:42.458Z,41.66
2018-06-13T10:20:11.307Z,41.46
2018-06-13T10:22:40.223Z,41.70
2018-06-13T10:25:09.828Z,39.68
2018-06-13T10:27:40.526Z,38.05
2018-06-13T10:30:10.167Z,37.00
2018-06-13T10:32:39.119Z,37.24
2018-06-13T10:35:08.995Z,37.01
2018-06-13T10:37:37.823Z,35.49
2018-06-13T10:40:07.623Z,36.64
2018-06-13T10:42:36.358Z,33.31
2018-06-13T10:45:05.952Z,34.54
2018-06-13T10:47:34.713Z,33.50
2018-06-13T10:50:03.559Z,34.28
2018-06-13T10:52:32.971Z,36.86
2018-06-13T10:55:01.784Z,37.93
2018-06-13T10:57:30.549Z,39.19
2018-06-13T10:59:59.350Z,40.46
2018-06-13T11:02:28.105Z,41.58
2018-06-13T11:04:57.102Z,42.08
2018-06-13T11:07:26.531Z,41.64
2018-06-13T11:09:55.294Z,43.55
2018-06-13T11:12:24.024Z,43.82
2018-06-13T11:14:52.803Z,42.34
2018-06-13T11:17:22.095Z,42.94
2018-06-13T11:19:50.844Z,40.83
2018-06-13T11:22:19.638Z,42.45
2018-06-13T11:24:49.187Z,44.79
2018-06-13T11:27:18.071Z,45.68
2018-06-13T11:29:47.528Z,46.21
2018-06-13T11:32:16.280Z,45.47
2018-06-13T11:34:45.673Z,45.71
2018-06-13T11:37:14.430Z,46.31
2018-06-13T11:39:43.204Z,45.31
2018-06-13T11:42:12.796Z,46.17
2018-06-13T11:44:42.538Z,45.25
2018-06-13T11:47:11.527Z,44.21
2018-06-13T11:49:40.441Z,44.68
2018-06-13T11:52:10.190Z,45.06
2018-06-13T11:54:39.084Z,45.56
2018-06-13T11:57:07.844Z,45.76
2018-06-13T11:59:36.663Z,45.86
2018-06-13T12:02:05.489Z,45.85
2018-06-13T12:04:34.370Z,44.31
2018-06-13T12:07:04.124Z,45.20
2018-06-13T12:09:32.850Z,44.85
2018-06-13T12:12:01.583Z,44.49
2018-06-13T12:14:30.439Z,45.45
2018-06-13T12:17:00.101Z,45.09
2018-06-13T12:19:28.903Z,45.14
2018-06-13T12:21:58.584Z,44.54
2018-06-13T12:24:28.730Z,45.18
2018-06-13T12:26:57.569Z,44.96
2018-06-13T12:29:27.155Z,43.63
2018-06-13T12:31:55.961Z,43.09
2018-06-13T12:34:24.716Z,42.93
2018-06-13T12:36:54.320Z,43.61
2018-06-13T12:39:23.083Z,41.90
2018-06-13T12:41:52.862Z,41.49
2018-06-13T12:44:22.537Z,41.36
2018-06-13T12:46:51.304Z,41.25
2018-06-13T12:49:20.041Z,41.68
2018-06-13T12:51:49.616Z,41.52
2018-06-13T12:54:18.367Z,41.33
2018-06-13T12:56:47.135Z,41.39
2018-06-13T12:59:15.902Z,41.41
2018-06-13T13:01:44.803Z,42.56
2018-06-13T13:04:13.696Z,42.44
2018-06-13T13:06:43.154Z,40.43
2018-06-13T13:09:13.635Z,41.44
2018-06-13T13:11:43.048Z,40.92
2018-06-13T13:14:13.286Z,41.71
2018-06-13T13:16:43.275Z,41.26
2018-06-13T13:19:12.985Z,42.57
2018-06-13T13:21:41.853Z,42.50
2018-06-13T13:24:11.491Z,42.96
2018-06-13T13:26:41.157Z,44.00
2018-06-13T13:29:10.782Z,43.50
2018-06-13T13:31:39.621Z,43.26
2018-06-13T13:34:08.638Z,43.01
2018-06-13T13:36:38.143Z,42.98
2018-06-13T13:39:08.853Z,43.66
2018-06-13T13:41:39.330Z,43.60
2018-06-13T13:44:08.150Z,43.50
2018-06-13T13:46:38.062Z,44.34
2018-06-13T13:49:06.830Z,43.97
2018-06-13T13:51:36.535Z,44.70
2018-06-13T13:54:05.420Z,44.36
2018-06-13T13:56:34.123Z,45.26
2018-06-13T13:59:04.236Z,45.45
2018-06-13T14:01:33.003Z,44.83
2018-06-13T14:04:01.832Z,45.33
2018-06-13T14:06:31.547Z,47.82
2018-06-13T14:09:00.819Z,48.22
2018-06-13T14:11:29.568Z,49.75
2018-06-13T14:13:59.150Z,50.76
2018-06-13T14:16:28.538Z,51.61
2018-06-13T14:18:58.083Z,53.00
2018-06-13T14:21:27.018Z,54.40
2018-06-13T14:23:56.568Z,55.78
2018-06-13T14:26:25.423Z,56.72
2018-06-13T14:28:54.943Z,56.85
2018-06-13T14:31:23.803Z,57.64
2018-06-13T14:33:52.807Z,56.80
2018-06-13T14:36:22.522Z,56.78
2018-06-13T14:38:51.282Z,57.14
2018-06-13T14:41:20.094Z,59.69
2018-06-13T14:43:49.034Z,59.99
2018-06-13T14:46:18.397Z,64.43
2018-06-13T14:48:47.159Z,65.91
2018-06-13T14:51:16.700Z,66.80
2018-06-13T14:53:45.551Z,68.25
2018-06-13T14:56:19.695Z,72.29
2018-06-13T14:58:48.514Z,80.19
2018-06-13T15:01:18.192Z,78.63
2018-06-13T15:03:46.978Z,77.13
2018-06-13T15:06:16.376Z,82.08
2018-06-13T15:08:45.746Z,81.91
2018-06-13T15:11:14.530Z,78.40
2018-06-13T15:13:43.300Z,76.89
2018-06-13T15:16:12.680Z,79.10
2018-06-13T15:18:41.511Z,76.19
2018-06-13T15:21:10.952Z,75.83
2018-06-13T15:23:40.690Z,78.07
2018-06-13T15:26:10.298Z,76.80
2018-06-13T15:28:39.752Z,75.00
2018-06-13T15:31:08.864Z,75.30
2018-06-13T15:33:37.671Z,74.28
2018-06-13T15:36:07.298Z,74.44
2018-06-13T15:38:36.153Z,75.32
2018-06-13T15:41:05.600Z,75.34
2018-06-13T15:43:34.535Z,76.00
2018-06-13T15:46:04.031Z,76.31
2018-06-13T15:48:32.868Z,75.44
2018-06-13T15:51:02.212Z,73.27
2018-06-13T15:53:31.263Z,73.38
2018-06-13T15:56:00.126Z,70.08
2018-06-13T15:58:29.078Z,68.67
2018-06-13T16:00:58.729Z,69.42
2018-06-13T16:03:27.918Z,68.30
2018-06-13T16:05:57.521Z,68.62
2018-06-13T16:08:27.495Z,67.34
2018-06-13T16:10:56.593Z,67.49
2018-06-13T16:13:26.174Z,67.56
2018-06-13T16:15:55.498Z,66.32
2018-06-13T16:18:24.242Z,66.88
2018-06-13T16:20:53.067Z,66.06
2018-06-13T16:23:22.445Z,64.48
2018-06-13T16:25:51.296Z,64.59
2018-06-13T16:28:21.251Z,63.38
2018-06-13T16:30:50.087Z,60.13
2018-06-13T16:33:18.879Z,57.07
2018-06-13T16:35:48.338Z,54.52
2018-06-13T16:38:17.111Z,52.74
2018-06-13T16:40:45.979Z,50.91
2018-06-13T16:43:14.778Z,50.19
2018-06-13T16:45:44.343Z,50.87
2018-06-13T16:48:13.091Z,49.41
2018-06-13T16:50:53.514Z,50.35
2018-06-13T16:53:50.835Z,51.98
2018-06-13T16:56:19.729Z,50.34
2018-06-13T16:58:48.929Z,48.62
2018-06-13T17:01:18.427Z,51.40
2018-06-13T17:03:47.173Z,50.73
2018-06-13T17:06:16.747Z,53.20
2018-06-13T17:08:46.598Z,54.53
2018-06-13T17:11:16.026Z,55.53
2018-06-13T17:13:44.884Z,55.43
2018-06-13T17:16:14.210Z,56.28
2018-06-13T17:18:43.551Z,57.00
2018-06-13T17:21:12.353Z,58.28
2018-06-13T17:23:42.291Z,59.06
2018-06-13T17:26:11.491Z,61.19
2018-06-13T17:28:41.654Z,61.27
2018-06-13T17:31:11.039Z,63.03
2018-06-13T17:33:40.219Z,63.42
2018-06-13T17:36:10.058Z,64.25
2018-06-13T17:38:39.259Z,65.40
2018-06-13T17:41:08.007Z,65.00
2018-06-13T17:43:36.822Z,65.53
2018-06-13T17:46:06.643Z,66.04
2018-06-13T17:48:35.474Z,66.87
2018-06-13T17:51:04.833Z,66.59
2018-06-13T17:53:33.566Z,68.17
2018-06-13T17:56:02.354Z,67.91
2018-06-13T17:58:31.206Z,67.52
2018-06-13T18:01:00.882Z,69.15
2018-06-13T18:03:29.681Z,69.60
2018-06-13T18:05:58.966Z,69.07
2018-06-13T18:08:29.510Z,69.65
2018-06-13T18:10:58.451Z,69.78
2018-06-13T18:13:27.411Z,70.17
2018-06-13T18:15:57.617Z,70.16
2018-06-13T18:18:27.016Z,71.17
2018-06-13T18:20:56.604Z,71.29
2018-06-13T18:23:27.308Z,71.60
2018-06-13T18:25:56.263Z,71.60
2018-06-13T18:28:26.627Z,72.19
2018-06-13T18:30:55.427Z,73.05
2018-06-13T18:33:24.577Z,73.23
2018-06-13T18:35:53.951Z,73.52
2018-06-13T18:38:22.865Z,73.27
2018-06-13T18:40:51.674Z,74.01
2018-06-13T18:43:20.504Z,74.36
2018-06-13T18:45:50.072Z,74.10
2018-06-13T18:48:18.874Z,74.01
2018-06-13T18:50:48.563Z,73.82
2018-06-13T18:53:17.427Z,74.47
2018-06-13T18:55:46.554Z,75.52
2018-06-13T18:58:15.336Z,75.84
2018-06-13T19:00:45.000Z,75.17
2018-06-13T19:03:13.786Z,75.67
2018-06-13T19:05:43.298Z,75.92
2018-06-13T19:08:12.746Z,75.96
2018-06-13T19:10:41.798Z,76.12
2018-06-13T19:13:11.587Z,76.55
2018-06-13T19:15:41.611Z,75.62
2018-06-13T19:18:10.712Z,75.23
2018-06-13T19:20:39.681Z,76.18
2018-06-13T19:23:09.845Z,76.28
2018-06-13T19:25:39.207Z,76.31
2018-06-13T19:28:09.567Z,75.99
2018-06-13T19:30:39.310Z,75.49
2018-06-13T19:33:08.093Z,76.67
2018-06-13T19:35:38.162Z,76.08
2018-06-13T19:38:06.942Z,76.40
2018-06-13T19:40:35.718Z,76.61
2018-06-13T19:43:07.855Z,76.62
2018-06-13T19:45:37.727Z,76.06
2018-06-13T19:48:11.589Z,76.21
2018-06-13T19:50:41.554Z,76.34
2018-06-13T19:53:15.854Z,76.81
2018-06-13T19:55:49.722Z,77.25
2018-06-13T19:58:18.490Z,76.62
2018-06-13T20:00:48.888Z,76.76
2018-06-13T20:03:23.430Z,77.31
2018-06-13T20:05:53.171Z,77.05
2018-06-13T20:08:22.671Z,77.78
2018-06-13T20:10:51.498Z,77.66
2018-06-13T20:13:25.409Z,77.84
2018-06-13T20:16:00.664Z,77.86
2018-06-13T20:18:34.594Z,77.74
2018-06-13T20:21:03.587Z,78.13
2018-06-13T20:23:33.221Z,78.29
2018-06-13T20:26:06.991Z,78.66
2018-06-13T20:28:41.549Z,78.36
2018-06-13T20:31:23.994Z,78.08
2018-06-13T20:33:52.847Z,78.36
2018-06-13T20:36:21.740Z,78.69
2018-06-13T20:38:50.681Z,79.18
2018-06-13T20:41:19.632Z,79.45
2018-06-13T20:43:48.431Z,79.20
2018-06-13T20:46:18.082Z,79.29
2018-06-13T20:48:46.867Z,79.58
2018-06-13T20:51:16.490Z,78.90
2018-06-13T20:53:45.396Z,79.82
2018-06-13T20:56:14.243Z,80.25
2018-06-13T20:58:43.059Z,80.60
2018-06-13T21:01:12.903Z,80.90
2018-06-13T21:03:42.043Z,81.01
2018-06-13T21:06:12.595Z,80.98
2018-06-13T21:08:42.439Z,80.87
2018-06-13T21:11:11.676Z,80.78
2018-06-13T21:13:40.964Z,80.59
2018-06-13T21:16:11.546Z,81.26
2018-06-13T21:18:40.617Z,80.71
2018-06-13T21:21:09.577Z,80.61
2018-06-13T21:23:40.227Z,81.48
2018-06-13T21:26:09.138Z,81.66
2018-06-13T21:28:39.709Z,81.73
2018-06-13T21:31:09.401Z,81.67
2018-06-13T21:33:38.178Z,81.58
2018-06-13T21:36:07.274Z,80.85
2018-06-13T21:38:36.092Z,81.48
2018-06-13T21:41:04.882Z,81.91
2018-06-13T21:43:33.802Z,82.01
2018-06-13T21:46:03.820Z,81.89
2018-06-13T21:48:32.678Z,81.71
2018-06-13T21:51:02.287Z,81.31
2018-06-13T21:53:31.152Z,81.67
2018-06-13T21:56:01.054Z,81.27
2018-06-13T21:58:30.996Z,82.19
2018-06-13T22:01:00.415Z,82.18
2018-06-13T22:03:29.336Z,82.52
2018-06-13T22:05:59.018Z,81.91
2018-06-13T22:08:29.567Z,82.20
2018-06-13T22:10:58.560Z,82.26
2018-06-13T22:13:27.528Z,82.71
2018-06-13T22:15:57.134Z,82.57
2018-06-13T22:18:26.007Z,82.30
2018-06-13T22:20:54.816Z,82.50
2018-06-13T22:23:24.984Z,81.89
2018-06-13T22:25:53.754Z,82.60
2018-06-13T22:28:23.712Z,81.56
2018-06-13T22:30:52.506Z,82.69
2018-06-13T22:33:21.510Z,82.67
2018-06-13T22:35:50.310Z,82.27
2018-06-13T22:38:19.102Z,82.01
2018-06-13T22:40:47.994Z,82.01
2018-06-13T22:43:17.064Z,82.28
2018-06-13T22:45:46.639Z,82.32
2018-06-13T22:48:16.928Z,83.03
2018-06-13T22:50:46.482Z,82.31
2018-06-13T22:53:15.320Z,82.72
2018-06-13T22:55:44.965Z,82.72
2018-06-13T22:58:13.711Z,82.99
2018-06-13T23:01:02.920Z,82.54
2018-06-13T23:03:32.347Z,82.64
2018-06-13T23:06:05.624Z,83.82
2018-06-13T23:08:35.881Z,83.75
2018-06-13T23:11:04.862Z,83.69
2018-06-13T23:13:33.723Z,83.84
2018-06-13T23:16:03.029Z,82.96
2018-06-13T23:18:32.003Z,83.70
2018-06-13T23:21:00.745Z,83.90
2018-06-13T23:23:30.356Z,84.49
2018-06-13T23:25:59.181Z,84.72
2018-06-13T23:28:28.918Z,84.12
2018-06-13T23:30:58.369Z,83.94
2018-06-13T23:33:27.143Z,84.19
2018-06-13T23:35:55.965Z,84.85
2018-06-13T23:38:24.741Z,84.42
2018-06-13T23:40:54.063Z,84.95
2018-06-13T23:43:22.871Z,85.19
2018-06-13T23:45:52.860Z,84.53
2018-06-13T23:48:21.632Z,85.82
2018-06-13T23:50:51.426Z,84.76
2018-06-13T23:53:21.313Z,85.98
2018-06-13T23:55:50.259Z,85.56
2018-06-13T23:58:19.048Z,84.76
